Time;durP1;ratioP1;P1;durP2;ratioP2;P2;SDS_P1;SDS_P2;PMS_P1;PMS_P2;Temp;Humidity;BMP_temperature;BMP_pressure;BME280_temperature;BME280_humidity;BME280_pressure;Samples;Min_cycle;Max_cycle;Signal;HPM_P1;HPM_P2
2023/12/12 00:01:46;;;;;;;15.88;4.35;;;8.90;99.90;;;;;;5024876;28;20037;-85
2023/12/12 00:04:46;;;;;;;20.02;4.03;;;8.80;99.90;;;;;;5011414;28;20045;-87
2023/12/12 00:07:22;;;;;;;;;;;;;;;;;;;;;
2023/12/12 00:09:54;;;;;;;19.30;4.65;;;8.80;99.90;;;;;;5024092;28;20071;-88
2023/12/12 00:12:46;;;;;;;;;;;;;;;;;;;;;
2023/12/12 00:15:20;;;;;;;23.58;4.15;;;8.80;99.90;;;;;;5024186;28;20072;-90
2023/12/12 00:18:02;;;;;;;15.65;4.15;;;8.80;99.90;;;;;;5028350;28;20026;-87
2023/12/12 00:21:19;;;;;;;21.98;4.47;;;8.80;99.90;;;;;;5010543;28;20038;-87
2023/12/12 00:23:55;;;;;;;20.60;3.92;;;8.70;99.90;;;;;;4998237;28;20029;-86
2023/12/12 00:26:24;;;;;;;17.70;3.85;;;;;;;;;;5025408;28;20030;-86
2023/12/12 00:28:56;;;;;;;15.73;3.80;;;;;;;;;;5023886;28;20037;-86
2023/12/12 00:31:39;;;;;;;18.42;3.65;;;;;;;;;;5005690;28;20117;-88
2023/12/12 00:34:05;;;;;;;19.75;4.68;;;;;;;;;;5024373;28;20034;-84
2023/12/12 00:40:06;;;;;;;18.85;4.60;;;;;;;;;;5013360;23;20034;-89
2023/12/12 00:42:42;;;;;;;22.30;4.75;;;8.50;99.90;;;;;;5014035;28;20030;-89
2023/12/12 05:31:37;;;;;;;33.03;9.65;;;8.40;99.90;;;;;;5002046;28;20023;-84
2023/12/12 05:34:10;;;;;;;29.75;10.48;;;;;;;;;;4986317;28;20054;-84
2023/12/12 05:36:57;;;;;;;27.17;10.00;;;8.40;99.90;;;;;;5013163;28;20091;-89
2023/12/12 05:39:34;;;;;;;29.48;8.70;;;8.40;99.90;;;;;;4982619;28;20286;-84
2023/12/12 05:42:12;;;;;;;29.77;10.73;;;8.40;99.90;;;;;;4971877;28;20058;-83
2023/12/12 05:48:06;;;;;;;35.08;12.60;;;8.50;99.90;;;;;;4991087;28;20041;-85
2023/12/12 05:50:40;;;;;;;30.55;11.50;;;;;;;;;;4974496;28;20031;-84
2023/12/12 05:53:41;;;;;;;33.22;10.10;;;8.40;99.90;;;;;;4989818;28;20055;-84
2023/12/12 05:56:19;;;;;;;;;;;;;;;;;;;;;
2023/12/12 05:59:01;;;;;;;;;;;;;;;;;;;;;
2023/12/12 06:01:49;;;;;;;;;;;;;;;;;;;;;
2023/12/12 06:04:38;;;;;;;19.08;8.75;;;8.50;99.90;;;;;;4984480;28;20034;-84
2023/12/12 06:07:28;;;;;;;;;;;;;;;;;;;;;
2023/12/12 06:13:43;;;;;;;23.08;7.95;;;8.40;99.90;;;;;;4980542;28;20031;-85
2023/12/12 06:16:11;;;;;;;;;;;8.60;99.90;;;;;;4975217;28;20035;-87
2023/12/12 06:18:38;;;;;;;22.92;8.23;;;7.80;99.90;;;;;;4955684;28;19914;-86
2023/12/12 06:21:07;;;;;;;25.60;7.50;;;10.80;99.90;;;;;;4992133;28;20031;-84
2023/12/12 06:23:33;;;;;;;25.48;8.40;;;;;;;;;;4972174;28;20039;-83
2023/12/12 06:25:59;;;;;;;20.20;8.02;;;8.40;99.90;;;;;;4989963;28;20032;-85
2023/12/12 06:28:25;;;;;;;29.98;9.95;;;;;;;;;;4976972;28;20169;-86
2023/12/12 06:30:53;;;;;;;30.75;8.15;;;8.40;99.90;;;;;;4985205;28;20062;-84
2023/12/12 06:33:19;;;;;;;28.45;8.75;;;8.50;99.90;;;;;;4967471;28;20007;-84
2023/12/12 06:35:45;;;;;;;17.90;7.18;;;;;;;;;;4986478;28;20079;-88
2023/12/12 06:38:13;;;;;;;19.23;7.85;;;8.50;99.90;;;;;;4988843;28;20099;-85
2023/12/12 06:40:48;;;;;;;18.13;7.32;;;11.30;99.90;;;;;;4986491;28;20015;-87
2023/12/12 06:43:14;;;;;;;25.42;8.27;;;8.40;99.90;;;;;;4978362;28;20022;-86
2023/12/12 06:45:40;;;;;;;22.15;7.30;;;;;;;;;;4994829;28;20046;-85
2023/12/12 06:48:06;;;;;;;24.70;7.75;;;8.40;99.90;;;;;;4983407;28;20018;-85
2023/12/12 06:50:32;;;;;;;26.13;8.00;;;10.70;99.90;;;;;;4987732;28;20555;-86
2023/12/12 06:52:58;;;;;;;28.98;8.20;;;;;;;;;;4984564;28;20746;-87
2023/12/12 06:55:24;;;;;;;27.15;8.90;;;;;;;;;;4975488;28;20019;-85
2023/12/12 06:57:51;;;;;;;29.65;8.82;;;8.40;99.90;;;;;;4986985;28;20015;-89
2023/12/12 07:00:17;;;;;;;26.15;9.30;;;8.80;99.90;;;;;;4968580;28;20043;-86
2023/12/12 07:02:42;;;;;;;31.27;9.30;;;8.10;99.90;;;;;;4984228;28;20038;-85
2023/12/12 07:05:08;;;;;;;33.10;10.70;;;;;;;;;;4986938;28;20015;-87
2023/12/12 07:07:34;;;;;;;34.60;11.65;;;8.40;99.90;;;;;;4991478;28;20025;-85
2023/12/12 07:10:06;;;;;;;31.08;11.77;;;8.50;99.90;;;;;;4986574;28;20043;-86
2023/12/12 07:12:33;;;;;;;37.75;12.23;;;8.50;99.90;;;;;;4990715;28;20031;-84
2023/12/12 07:14:59;;;;;;;41.28;12.68;;;11.60;99.90;;;;;;4990873;28;20022;-85
2023/12/12 07:17:25;;;;;;;39.05;12.68;;;;;;;;;;4961911;28;20106;-87
2023/12/12 07:19:51;;;;;;;37.80;13.07;;;;;;;;;;4985361;28;20035;-81
2023/12/12 07:22:17;;;;;;;45.75;14.73;;;;;;;;;;4983188;28;20039;-84
2023/12/12 07:24:43;;;;;;;46.33;14.35;;;;;;;;;;4993371;28;20051;-82
2023/12/12 07:27:09;;;;;;;34.97;12.48;;;;;;;;;;4972555;28;20033;-84
2023/12/12 07:29:35;;;;;;;42.88;13.48;;;;;;;;;;4985593;28;20019;-85
2023/12/12 07:32:06;;;;;;;35.63;11.95;;;8.60;99.90;;;;;;4964325;28;20111;-80
2023/12/12 07:34:41;;;;;;;40.55;13.38;;;8.60;99.90;;;;;;4982859;28;20113;-84
2023/12/12 07:37:07;;;;;;;39.22;13.60;;;;;;;;;;4968956;28;20023;-85
2023/12/12 07:39:33;;;;;;;38.30;13.10;;;;;;;;;;4972163;28;20031;-84
2023/12/12 07:42:02;;;;;;;36.00;12.65;;;8.60;99.90;;;;;;4992197;28;20015;-86
2023/12/12 07:44:28;;;;;;;31.17;11.48;;;;;;;;;;4981499;28;20031;-84
2023/12/12 07:46:54;;;;;;;28.45;10.73;;;;;;;;;;4967498;28;20050;-87
2023/12/12 07:49:20;;;;;;;28.35;11.07;;;;;;;;;;4977525;28;20054;-82
2023/12/12 07:51:46;;;;;;;33.22;12.48;;;;;;;;;;4983411;28;20038;-83
2023/12/12 07:54:12;;;;;;;35.80;11.80;;;;;;;;;;4979171;28;20026;-84
2023/12/12 07:56:41;;;;;;;32.42;12.15;;;8.70;99.90;;;;;;4978091;28;20031;-86
2023/12/12 07:59:14;;;;;;;30.58;11.93;;;8.70;99.90;;;;;;4960491;28;20050;-87
2023/12/12 08:01:43;;;;;;;32.70;11.68;;;;;;;;;;4976962;28;20031;-83
2023/12/12 08:04:09;;;;;;;31.05;12.57;;;8.70;99.90;;;;;;4983592;28;20027;-87
2023/12/12 08:06:35;;;;;;;28.95;11.73;;;;;;;;;;4986313;28;20039;-88
2023/12/12 08:09:01;;;;;;;34.70;12.27;;;8.80;99.90;;;;;;4982290;28;20102;-84
2023/12/12 08:11:27;;;;;;;31.63;11.52;;;;;;;;;;4965944;28;20050;-86
2023/12/12 08:14:00;;;;;;;39.75;13.57;;;8.80;99.90;;;;;;4978964;28;20011;-83
2023/12/12 08:16:26;;;;;;;36.50;12.93;;;8.70;99.90;;;;;;4978534;28;20046;-85
2023/12/12 08:18:55;;;;;;;33.22;12.75;;;8.80;99.90;;;;;;4968405;28;20012;-87
2023/12/12 08:21:21;;;;;;;40.38;15.23;;;;;;;;;;4971585;28;20091;-88
2023/12/12 08:23:48;;;;;;;41.17;14.55;;;;;;;;;;4971943;28;20019;-86
2023/12/12 08:26:14;;;;;;;35.53;12.68;;;8.80;99.90;;;;;;4988419;28;20064;-87
2023/12/12 08:28:40;;;;;;;36.15;12.55;;;11.90;99.90;;;;;;4973718;28;20035;-85
2023/12/12 08:31:06;;;;;;;35.03;13.27;;;8.90;99.90;;;;;;4988299;28;20038;-86
2023/12/12 08:33:33;;;;;;;34.75;13.27;;;9.60;99.90;;;;;;4971941;28;20077;-86
2023/12/12 08:35:59;;;;;;;36.88;13.77;;;8.80;99.90;;;;;;4978855;28;20031;-86
2023/12/12 08:38:25;;;;;;;38.40;14.00;;;8.90;99.90;;;;;;4985003;28;20034;-87
2023/12/12 08:40:53;;;;;;;35.45;13.82;;;11.00;99.90;;;;;;4964083;28;20011;-85
2023/12/12 08:43:19;;;;;;;32.30;13.35;;;8.80;99.90;;;;;;4961095;28;20026;-84
2023/12/12 08:45:44;;;;;;;34.72;13.07;;;10.80;99.90;;;;;;4968105;28;20022;-87
2023/12/12 08:48:10;;;;;;;32.65;12.35;;;12.00;99.90;;;;;;4964364;28;20087;-84
2023/12/12 08:50:35;;;;;;;29.95;12.63;;;10.70;99.90;;;;;;4965389;28;20050;-88
2023/12/12 08:53:03;;;;;;;31.00;11.73;;;10.80;99.90;;;;;;4956186;28;20038;-85
2023/12/12 08:55:29;;;;;;;30.63;12.52;;;9.40;99.90;;;;;;4969161;28;20019;-87
2023/12/12 08:57:57;;;;;;;26.50;12.35;;;;;;;;;;4967338;28;20023;-87
2023/12/12 09:00:24;;;;;;;35.70;13.13;;;9.10;99.90;;;;;;4984578;28;20067;-82
2023/12/12 09:02:49;;;;;;;39.47;12.90;;;9.20;99.90;;;;;;4980006;28;20146;-84
2023/12/12 09:05:15;;;;;;;36.83;13.82;;;;;;;;;;4967333;28;20022;-85
2023/12/12 09:07:41;;;;;;;31.13;12.35;;;9.00;99.90;;;;;;4966813;28;20034;-87
2023/12/12 09:10:07;;;;;;;38.95;13.00;;;9.00;99.90;;;;;;4979065;28;20030;-87
2023/12/12 09:12:34;;;;;;;35.53;13.30;;;;;;;;;;4964172;28;20015;-87
2023/12/12 09:15:00;;;;;;;32.70;12.10;;;;;;;;;;4980997;28;20061;-88
2023/12/12 09:17:25;;;;;;;32.90;12.25;;;9.10;99.90;;;;;;4969562;28;20035;-88
2023/12/12 09:19:51;;;;;;;32.50;12.93;;;9.10;99.90;;;;;;4968133;28;20058;-87
2023/12/12 09:22:17;;;;;;;30.40;12.18;;;9.20;99.90;;;;;;4983706;28;20011;-84
2023/12/12 09:24:43;;;;;;;33.35;12.95;;;;;;;;;;4985096;28;20038;-86
2023/12/12 09:27:09;;;;;;;35.05;11.38;;;;;;;;;;4966877;28;20031;-84
2023/12/12 09:29:34;;;;;;;30.15;12.35;;;;;;;;;;4973950;28;20038;-87
2023/12/12 09:32:00;;;;;;;28.45;12.25;;;9.20;99.90;;;;;;4971167;28;20505;-85
2023/12/12 09:34:26;;;;;;;26.30;11.88;;;11.20;99.90;;;;;;4979980;28;20033;-83
2023/12/12 09:36:51;;;;;;;30.02;11.80;;;7.50;99.90;;;;;;4968394;28;20082;-88
2023/12/12 09:39:19;;;;;;;27.25;11.25;;;10.90;99.90;;;;;;4981093;28;20034;-87
2023/12/12 09:41:47;;;;;;;26.08;10.43;;;12.40;99.90;;;;;;4956370;28;20041;-85
2023/12/12 09:44:16;;;;;;;24.90;10.90;;;9.30;99.90;;;;;;4979040;28;20011;-87
2023/12/12 09:46:43;;;;;;;30.00;11.60;;;10.00;99.90;;;;;;4966326;28;20030;-88
2023/12/12 09:49:11;;;;;;;27.35;10.98;;;10.80;99.90;;;;;;4981781;28;20039;-85
2023/12/12 09:51:39;;;;;;;28.20;11.88;;;12.50;99.90;;;;;;4963021;28;20031;-84
2023/12/12 09:54:07;;;;;;;23.70;10.30;;;11.30;99.90;;;;;;4968978;28;20023;-88
2023/12/12 09:56:36;;;;;;;27.98;11.00;;;11.00;99.90;;;;;;4961000;28;20042;-86
2023/12/12 09:59:03;;;;;;;31.23;12.27;;;12.80;99.90;;;;;;4974899;28;20026;-86
2023/12/12 10:01:30;;;;;;;31.70;12.75;;;10.40;99.90;;;;;;4972583;28;20019;-89
2023/12/12 10:03:55;;;;;;;28.88;12.20;;;9.50;99.90;;;;;;4966028;28;20031;-88
2023/12/12 10:06:28;;;;;;;25.55;11.60;;;9.50;99.90;;;;;;4969175;28;20046;-89
2023/12/12 10:08:57;;;;;;;27.23;11.77;;;;;;;;;;4986822;28;20019;-87
2023/12/12 10:11:24;;;;;;;31.33;12.82;;;;;;;;;;4987375;28;20011;-90
2023/12/12 10:13:53;;;;;;;28.55;12.00;;;9.60;99.90;;;;;;4973408;28;20035;-88
2023/12/12 10:16:19;;;;;;;24.50;10.95;;;;;;;;;;4968717;28;20018;-88
2023/12/12 10:18:46;;;;;;;25.45;12.45;;;;;;;;;;4971370;28;20031;-89
2023/12/12 10:21:16;;;;;;;27.10;11.45;;;9.70;99.90;;;;;;4981620;28;20043;-89
2023/12/12 10:23:50;;;;;;;28.42;12.23;;;9.80;99.90;;;;;;4974852;28;20027;-91
2023/12/12 10:26:23;;;;;;;28.63;13.43;;;9.70;99.90;;;;;;4995841;28;20011;-87
2023/12/12 10:28:49;;;;;;;27.00;11.88;;;;;;;;;;4991737;28;20034;-88
2023/12/12 10:31:15;;;;;;;31.52;12.55;;;9.80;99.90;;;;;;4970112;28;20030;-89
2023/12/12 10:33:40;;;;;;;24.10;12.68;;;12.20;99.90;;;;;;4992040;28;20019;-90
2023/12/12 10:36:10;;;;;;;23.55;10.45;;;9.90;99.90;;;;;;4971224;28;20030;-89
2023/12/12 10:38:38;;;;;;;20.80;10.40;;;10.00;99.90;;;;;;4991933;28;20090;-89
2023/12/12 10:41:12;;;;;;;23.23;10.98;;;10.00;99.90;;;;;;4987572;28;20035;-88
2023/12/12 10:43:42;;;;;;;21.58;10.82;;;9.90;99.90;;;;;;4992028;28;20034;-90
2023/12/12 10:46:14;;;;;;;20.70;10.35;;;12.10;99.90;;;;;;4983096;28;20027;-88
2023/12/12 10:48:46;;;;;;;19.08;9.77;;;10.20;99.90;;;;;;4984353;28;20008;-87
2023/12/12 10:51:13;;;;;;;27.30;13.43;;;11.90;99.90;;;;;;4981629;28;20039;-87
2023/12/12 10:53:41;;;;;;;25.33;12.02;;;12.80;99.90;;;;;;4985057;28;20039;-89
2023/12/12 10:56:08;;;;;;;25.83;11.05;;;12.80;99.90;;;;;;4986696;28;20041;-88
2023/12/12 10:58:35;;;;;;;15.75;8.20;;;10.30;99.90;;;;;;4986862;28;20035;-86
2023/12/12 11:01:02;;;;;;;14.48;8.18;;;11.20;99.90;;;;;;4974612;28;20018;-86
2023/12/12 11:03:29;;;;;;;12.13;6.68;;;11.50;99.90;;;;;;4980987;28;21338;-86
2023/12/12 11:05:55;;;;;;;11.55;6.22;;;11.60;99.90;;;;;;4981183;28;20027;-86
2023/12/12 11:08:23;;;;;;;10.45;6.00;;;10.70;99.90;;;;;;4964864;28;20006;-88
2023/12/12 11:10:54;;;;;;;7.40;4.70;;;12.00;99.90;;;;;;4983313;28;20035;-89
2023/12/12 11:13:22;;;;;;;9.27;5.85;;;10.90;99.90;;;;;;4965853;28;20042;-86
2023/12/12 11:15:49;;;;;;;7.53;4.32;;;11.00;99.90;;;;;;4969353;28;20022;-85
2023/12/12 11:18:15;;;;;;;6.80;4.45;;;10.90;99.90;;;;;;4982480;28;20037;-86
2023/12/12 11:20:41;;;;;;;8.18;4.65;;;12.90;99.90;;;;;;4967667;28;20035;-86
2023/12/12 11:23:08;;;;;;;7.20;4.53;;;;;;;;;;4986011;28;20023;-86
2023/12/12 11:25:40;;;;;;;8.82;4.70;;;11.10;99.90;;;;;;4973609;28;20031;-85
2023/12/12 11:28:08;;;;;;;7.20;4.45;;;11.10;99.90;;;;;;4982775;28;20046;-87
2023/12/12 11:30:38;;;;;;;7.65;4.00;;;11.20;99.90;;;;;;4980964;28;20029;-87
2023/12/12 11:33:07;;;;;;;7.95;4.05;;;14.30;99.90;;;;;;4986962;28;20003;-86
2023/12/12 11:35:51;;;;;;;8.00;4.40;;;13.80;99.90;;;;;;4982508;28;20047;-86
2023/12/12 11:39:26;;;;;;;7.97;4.45;;;12.80;99.90;;;;;;4969867;28;20031;-87
2023/12/12 11:41:27;;;;;;;12.90;5.20;;;;;;;;;;4976349;28;20069;-89
2023/12/12 11:44:22;;;;;;;13.48;4.55;;;11.50;99.90;;;;;;4977094;28;20154;-86
2023/12/12 11:46:57;;;;;;;6.28;3.75;;;11.50;99.90;;;;;;4965913;28;20070;-88
2023/12/12 11:49:38;;;;;;;;;;;;;;;;;;;;;
2023/12/12 11:52:07;;;;;;;6.93;2.83;;;11.60;99.90;;;;;;4982665;28;20188;-87
2023/12/12 11:54:38;;;;;;;5.93;3.00;;;;;;;;;;4982661;28;20055;-84
2023/12/12 11:57:04;;;;;;;6.22;2.90;;;11.60;99.90;;;;;;4979219;28;20050;-86
2023/12/12 12:00:02;;;;;;;9.88;3.85;;;11.80;99.90;;;;;;4982424;28;20019;-87
2023/12/12 12:03:12;;;;;;;6.43;3.55;;;11.80;99.90;;;;;;4982640;28;20023;-88
2023/12/12 12:06:08;;;;;;;7.57;4.28;;;11.80;99.90;;;;;;4985586;28;20023;-89
2023/12/12 12:09:08;;;;;;;;;;;;;;;;;;;;;
2023/12/12 12:12:15;;;;;;;7.03;5.03;;;11.90;99.90;;;;;;4983886;28;20038;-84
2023/12/12 12:14:52;;;;;;;9.43;4.50;;;11.80;99.90;;;;;;4973135;28;20054;-87
2023/12/12 12:17:48;;;;;;;6.75;4.13;;;11.50;99.90;;;;;;4968242;28;20031;-88
2023/12/12 12:20:47;;;;;;;8.15;4.22;;;11.90;99.90;;;;;;4973207;28;20091;-87
2023/12/12 12:23:28;;;;;;;9.35;4.60;;;11.80;99.90;;;;;;4966378;28;20019;-86
2023/12/12 12:26:07;;;;;;;7.38;4.10;;;11.80;99.90;;;;;;4964518;28;20070;-89
2023/12/12 12:28:45;;;;;;;10.27;5.18;;;11.70;99.90;;;;;;4984949;28;20095;-88
2023/12/12 12:31:49;;;;;;;12.32;5.72;;;11.70;99.90;;;;;;4966680;28;20023;-86
2023/12/12 12:34:57;;;;;;;8.63;5.47;;;11.80;99.90;;;;;;4979817;28;20078;-85
2023/12/12 12:37:49;;;;;;;9.50;5.15;;;11.80;99.90;;;;;;4971717;28;20066;-84
2023/12/12 12:40:39;;;;;;;9.40;5.32;;;11.80;99.90;;;;;;4972361;28;20018;-88
2023/12/12 12:43:24;;;;;;;11.35;4.85;;;11.80;99.90;;;;;;4971387;28;20016;-89
2023/12/12 12:45:58;;;;;;;9.63;5.32;;;11.80;99.90;;;;;;4975923;28;20046;-89
2023/12/12 12:48:26;;;;;;;11.18;5.38;;;;;;;;;;4991953;28;20023;-86
2023/12/12 12:54:39;;;;;;;8.80;5.47;;;12.00;99.90;;;;;;4974727;28;20031;-86
2023/12/12 12:57:36;;;;;;;9.23;6.07;;;12.10;99.90;;;;;;4974132;28;20025;-88
2023/12/12 13:00:35;;;;;;;11.02;5.57;;;12.10;99.90;;;;;;4993415;28;20042;-86
2023/12/12 13:03:04;;;;;;;9.05;5.50;;;12.10;99.90;;;;;;4961924;28;20027;-86
2023/12/12 13:05:56;;;;;;;9.23;5.45;;;12.10;99.90;;;;;;4972214;28;20028;-86
2023/12/12 13:11:58;;;;;;;10.05;5.22;;;12.10;99.90;;;;;;4960305;28;20026;-86
2023/12/12 13:15:05;;;;;;;8.90;5.10;;;12.10;99.90;;;;;;4970771;28;20031;-89
2023/12/12 13:17:49;;;;;;;6.80;4.50;;;;;;;;;;4918794;28;20012;-87
2023/12/12 13:24:35;;;;;;;8.35;4.05;;;12.10;99.90;;;;;;4993607;28;20015;-87
2023/12/12 13:27:16;;;;;;;8.00;4.55;;;;;;;;;;4900000;29;20069;-85
2023/12/12 13:33:19;;;;;;;;;;;;;;;;;;;;;
2023/12/12 13:39:38;;;;;;;14.88;6.53;;;;;;;;;;4887847;29;20013;-85
2023/12/12 13:43:05;;;;;;;10.02;3.92;;;11.90;99.90;;;;;;4968649;28;20083;-85
2023/12/12 13:46:02;;;;;;;6.55;4.68;;;11.90;99.90;;;;;;4960772;28;20027;-88
2023/12/12 14:02:56;;;;;;;3.70;1.83;;;;;;;;;;4915355;29;20033;-90
2023/12/12 14:05:40;;;;;;;;;;;;;;;;;;;;;
2023/12/12 14:12:21;;;;;;;3.75;1.98;;;11.90;99.90;;;;;;4843281;29;20030;-86
2023/12/12 14:15:31;;;;;;;4.22;2.92;;;11.80;99.90;;;;;;4828385;29;20036;-89
2023/12/12 14:24:49;;;;;;;;;;;11.80;99.90;;;;;;4929713;28;20036;-87
2023/12/12 14:27:20;;;;;;;;;;;11.90;99.90;;;;;;4966433;28;19908;-87
2023/12/12 14:30:01;;;;;;;3.38;1.90;;;;;;;;;;4978105;28;19905;-88
2023/12/12 14:32:36;;;;;;;5.18;3.42;;;;;;;;;;4979444;28;20027;-88
2023/12/12 14:35:26;;;;;;;4.30;2.50;;;;;;;;;;4973556;28;20046;-88
2023/12/12 14:38:37;;;;;;;5.13;2.90;;;11.90;99.90;;;;;;4970654;28;20039;-90
2023/12/12 14:42:06;;;;;;;4.85;2.38;;;11.90;99.90;;;;;;4975603;28;20035;-88
2023/12/12 14:44:45;;;;;;;3.60;2.13;;;11.90;99.90;;;;;;4988517;28;20019;-88
2023/12/12 14:48:00;;;;;;;5.10;2.63;;;11.90;99.90;;;;;;4975958;28;20023;-86
2023/12/12 14:57:40;;;;;;;2.30;1.40;;;12.00;99.90;;;;;;4952259;28;20015;-87
2023/12/12 15:01:03;;;;;;;;;;;;;;;;;;;;;
2023/12/12 15:06:32;;;;;;;3.03;1.90;;;;;;;;;;4964481;28;20113;-88
2023/12/12 15:09:42;;;;;;;3.55;2.20;;;11.80;99.90;;;;;;4972754;28;20063;-88
2023/12/12 15:12:52;;;;;;;;;;;;;;;;;;;;;
2023/12/12 15:15:36;;;;;;;3.35;2.10;;;11.70;99.90;;;;;;4908854;29;20088;-85
2023/12/12 15:18:25;;;;;;;5.40;3.40;;;11.70;99.90;;;;;;4915271;29;20040;-87
2023/12/12 15:21:25;;;;;;;;;;;;;;;;;;;;;
2023/12/12 15:24:07;;;;;;;5.40;2.78;;;11.70;99.90;;;;;;4915674;29;20072;-87
2023/12/12 15:30:16;;;;;;;4.30;2.30;;;11.50;99.90;;;;;;4980695;28;20046;-88
2023/12/12 15:33:16;;;;;;;5.25;2.70;;;11.60;99.90;;;;;;4979357;28;20161;-87
2023/12/12 15:36:26;;;;;;;5.22;3.00;;;11.70;99.90;;;;;;4974723;28;20038;-87
2023/12/12 15:46:18;;;;;;;7.05;4.47;;;11.60;99.90;;;;;;4968431;28;20035;-87
2023/12/12 15:49:04;;;;;;;6.97;4.68;;;11.60;99.90;;;;;;4979119;23;20058;-86
2023/12/12 15:51:39;;;;;;;7.00;4.65;;;11.60;99.90;;;;;;4985177;28;20036;-87
2023/12/12 15:54:05;;;;;;;8.48;4.75;;;11.60;99.90;;;;;;4990832;28;20025;-86
2023/12/12 15:56:32;;;;;;;7.50;4.72;;;11.50;99.90;;;;;;4989128;28;20026;-86
2023/12/12 15:58:59;;;;;;;9.98;5.60;;;11.50;99.90;;;;;;4959853;28;20038;-85
2023/12/12 16:01:25;;;;;;;8.75;4.65;;;11.50;99.90;;;;;;4982731;28;20026;-87
2023/12/12 16:03:54;;;;;;;5.57;3.67;;;;;;;;;;4982740;28;20046;-86
2023/12/12 16:06:21;;;;;;;5.30;3.58;;;11.50;99.90;;;;;;4983188;28;20258;-87
2023/12/12 16:08:48;;;;;;;6.63;3.95;;;11.50;99.90;;;;;;4984434;28;20030;-86
2023/12/12 16:11:14;;;;;;;5.57;3.60;;;;;;;;;;4983573;28;20062;-86
2023/12/12 16:13:40;;;;;;;6.05;3.10;;;11.50;99.90;;;;;;4966983;28;20027;-86
2023/12/12 16:16:06;;;;;;;7.03;3.92;;;12.40;99.90;;;;;;4985182;28;20019;-87
2023/12/12 16:18:34;;;;;;;7.18;4.22;;;11.50;99.90;;;;;;4987356;28;20110;-87
2023/12/12 16:21:00;;;;;;;6.72;3.92;;;;;;;;;;4985135;28;20038;-86
2023/12/12 16:23:26;;;;;;;7.15;3.38;;;11.50;99.90;;;;;;4985126;28;20027;-87
2023/12/12 16:25:51;;;;;;;5.65;3.00;;;11.80;99.90;;;;;;4964514;28;20027;-84
2023/12/12 16:28:17;;;;;;;5.13;2.22;;;12.00;99.90;;;;;;4981716;28;20035;-85
2023/12/12 16:30:43;;;;;;;6.53;2.65;;;11.80;99.90;;;;;;4971422;28;20127;-85
2023/12/12 16:33:10;;;;;;;4.57;2.22;;;12.20;99.90;;;;;;4962780;28;20380;-87
2023/12/12 16:35:37;;;;;;;6.72;2.83;;;;;;;;;;4962170;28;20035;-83
2023/12/12 16:38:03;;;;;;;4.60;2.40;;;;;;;;;;4977245;28;20026;-83
2023/12/12 16:40:29;;;;;;;5.22;2.22;;;11.50;99.90;;;;;;4982802;28;20105;-84
2023/12/12 16:42:55;;;;;;;6.82;2.55;;;11.50;99.90;;;;;;4967201;28;20034;-86
2023/12/12 16:45:21;;;;;;;7.10;2.47;;;;;;;;;;4975935;28;20039;-87
2023/12/12 16:47:47;;;;;;;4.75;2.10;;;;;;;;;;4962643;28;20034;-84
2023/12/12 16:50:13;;;;;;;6.63;2.47;;;11.50;99.90;;;;;;4978145;28;20041;-87
2023/12/12 16:52:39;;;;;;;5.13;2.38;;;12.80;99.90;;;;;;4952308;28;20035;-84
2023/12/12 16:55:06;;;;;;;6.03;2.40;;;11.50;99.90;;;;;;4975035;28;20042;-84
2023/12/12 16:57:36;;;;;;;5.70;2.45;;;11.50;99.90;;;;;;4957714;28;20031;-84
2023/12/12 17:00:02;;;;;;;8.20;2.65;;;11.60;99.90;;;;;;4979596;28;20039;-85
2023/12/12 17:02:30;;;;;;;25.80;11.90;;;;;;;;;;4969632;28;20123;-88
2023/12/12 17:04:57;;;;;;;7.68;3.00;;;11.50;99.90;;;;;;4972898;28;20058;-86
2023/12/12 17:07:23;;;;;;;7.65;2.50;;;;;;;;;;4983370;28;20101;-87
2023/12/12 17:09:48;;;;;;;7.90;2.50;;;11.50;99.90;;;;;;4985379;28;20510;-87
2023/12/12 17:12:14;;;;;;;6.55;2.33;;;11.90;99.90;;;;;;4965825;28;20253;-85
2023/12/12 17:14:40;;;;;;;4.65;2.30;;;11.50;99.90;;;;;;4977314;28;20033;-84
2023/12/12 17:17:05;;;;;;;7.03;3.28;;;11.70;99.90;;;;;;4983556;28;20023;-85
2023/12/12 17:19:32;;;;;;;7.20;2.75;;;;;;;;;;4982851;28;20034;-86
2023/12/12 17:21:57;;;;;;;7.68;2.95;;;11.50;99.90;;;;;;4969476;28;20058;-87
2023/12/12 17:24:23;;;;;;;12.32;2.92;;;;;;;;;;4983120;28;20035;-86
2023/12/12 17:27:00;;;;;;;8.20;2.90;;;;;;;;;;4967985;28;20035;-85
2023/12/12 17:29:27;;;;;;;9.40;2.70;;;;;;;;;;4965803;28;20059;-86
2023/12/12 17:32:14;;;;;;;;;;;;;;;;;;;;;
2023/12/12 17:35:05;;;;;;;6.45;2.80;;;11.50;99.90;;;;;;4983471;28;20083;-85
2023/12/12 17:37:37;;;;;;;6.57;3.30;;;;;;;;;;4959631;28;20018;-86
2023/12/12 17:40:04;;;;;;;6.70;2.92;;;;;;;;;;4966236;28;20106;-89
2023/12/12 17:42:51;;;;;;;6.15;2.85;;;;;;;;;;4973338;28;20034;-85
2023/12/12 17:45:23;;;;;;;6.88;3.00;;;;;;;;;;4981660;28;20031;-87
2023/12/12 17:48:23;;;;;;;;;;;;;;;;;;;;;
2023/12/12 17:51:11;;;;;;;;;;;;;;;;;;;;;
2023/12/12 17:53:38;;;;;;;6.38;2.35;;;;;;;;;;4971643;28;20092;-87
2023/12/12 17:56:23;;;;;;;8.43;2.80;;;;;;;;;;4959191;28;20019;-88
2023/12/12 17:58:52;;;;;;;4.38;1.67;;;;;;;;;;4971332;28;20035;-87
2023/12/12 18:01:25;;;;;;;4.75;1.98;;;;;;;;;;4971428;28;20091;-87
2023/12/12 18:03:53;;;;;;;4.40;2.05;;;;;;;;;;4964823;28;20064;-89
2023/12/12 18:06:56;;;;;;;;;;;;;;;;;;;;;
2023/12/12 18:09:43;;;;;;;7.07;3.10;;;11.50;99.90;;;;;;4970580;28;20203;-86
2023/12/12 18:12:11;;;;;;;7.07;3.00;;;;;;;;;;4963673;28;20387;-89
2023/12/12 18:14:41;;;;;;;6.50;3.85;;;;;;;;;;4969678;28;20023;-87
2023/12/12 18:17:41;;;;;;;;;;;;;;;;;;;;;
2023/12/12 18:21:10;;;;;;;11.80;4.88;;;11.40;99.90;;;;;;4979277;28;20118;-86
2023/12/12 18:24:07;;;;;;;10.43;4.47;;;11.40;99.90;;;;;;4983918;28;20082;-87
2023/12/12 18:26:58;;;;;;;5.72;2.50;;;11.40;99.90;;;;;;4966357;28;20139;-88
2023/12/12 18:29:27;;;;;;;7.20;2.85;;;11.50;99.90;;;;;;4952725;29;20040;-87
2023/12/12 18:31:59;;;;;;;6.00;2.22;;;11.50;99.90;;;;;;4959296;28;20031;-87
2023/12/12 18:34:38;;;;;;;4.43;2.10;;;11.50;99.90;;;;;;4987145;28;20035;-87
2023/12/12 18:37:13;;;;;;;3.30;1.20;;;11.50;99.90;;;;;;4974381;28;20463;-88
2023/12/12 18:39:44;;;;;;;3.50;1.63;;;11.40;99.90;;;;;;4973031;28;20029;-87
2023/12/12 18:42:16;;;;;;;6.43;1.85;;;11.30;99.90;;;;;;4978849;28;20035;-89
2023/12/12 18:44:45;;;;;;;3.65;1.70;;;;;;;;;;4969111;28;20027;-86
2023/12/12 18:47:14;;;;;;;5.03;1.90;;;;;;;;;;4979182;28;20042;-89
2023/12/12 18:53:32;;;;;;;;;;;;;;;;;;;;;
2023/12/12 18:56:14;;;;;;;;;;;;;;;;;;;;;
2023/12/12 18:58:43;;;;;;;2.75;1.23;;;10.80;99.90;;;;;;4964229;28;20094;-88
2023/12/12 19:01:29;;;;;;;;;;;;;;;;;;;;;
2023/12/12 19:04:01;;;;;;;3.92;1.58;;;;;;;;;;4974689;28;20066;-86
2023/12/12 19:07:00;;;;;;;4.00;1.55;;;10.60;99.90;;;;;;4979981;28;20018;-88
2023/12/12 19:09:54;;;;;;;3.20;1.30;;;10.60;99.90;;;;;;4945127;28;20045;-88
2023/12/12 19:13:24;;;;;;;4.00;1.48;;;10.60;99.90;;;;;;4953933;28;20557;-87
2023/12/12 19:15:49;;;;;;;3.40;1.98;;;;;;;;;;4932755;28;20084;-85
2023/12/12 19:18:15;;;;;;;3.72;2.00;;;;;;;;;;4940725;29;20031;-83
2023/12/12 19:20:41;;;;;;;4.47;2.00;;;10.60;99.90;;;;;;4954775;29;20571;-85
2023/12/12 19:23:10;;;;;;;3.00;1.20;;;;;;;;;;4954604;28;20145;-86
2023/12/12 19:25:36;;;;;;;2.58;1.40;;;;;;;;;;4942623;29;20404;-85
2023/12/12 19:28:04;;;;;;;3.72;1.35;;;10.60;99.90;;;;;;4959041;29;20045;-86
2023/12/12 19:30:30;;;;;;;5.05;2.95;;;10.60;99.90;;;;;;4976919;28;20049;-88
2023/12/12 19:32:55;;;;;;;5.82;2.55;;;10.40;99.90;;;;;;4976517;28;20034;-84
2023/12/12 19:35:24;;;;;;;6.60;2.50;;;;;;;;;;4960065;28;20454;-84
2023/12/12 19:37:51;;;;;;;7.13;2.90;;;10.50;99.90;;;;;;4965574;28;20015;-87
2023/12/12 19:40:17;;;;;;;5.50;3.00;;;10.60;99.90;;;;;;4956650;28;20042;-83
2023/12/12 19:42:43;;;;;;;4.53;2.25;;;10.60;99.90;;;;;;4978123;28;20392;-85
2023/12/12 19:45:13;;;;;;;4.65;1.98;;;10.50;99.90;;;;;;4960235;28;20033;-84
2023/12/12 19:47:39;;;;;;;4.53;1.63;;;10.60;99.90;;;;;;4967261;28;20150;-84
2023/12/12 19:50:05;;;;;;;6.47;1.95;;;10.50;99.90;;;;;;4969876;28;20157;-84
2023/12/12 19:52:31;;;;;;;3.00;1.50;;;10.60;99.90;;;;;;4972425;28;20042;-87
2023/12/12 19:54:57;;;;;;;3.63;1.40;;;10.50;99.90;;;;;;4972384;28;20038;-84
2023/12/12 19:57:23;;;;;;;5.30;1.70;;;10.50;99.90;;;;;;4968706;28;20037;-83
2023/12/12 19:59:49;;;;;;;4.25;1.70;;;10.50;99.90;;;;;;4968489;28;20464;-84
2023/12/12 20:02:16;;;;;;;4.38;2.00;;;10.50;99.90;;;;;;4959816;28;20039;-85
2023/12/12 20:04:42;;;;;;;4.10;1.30;;;10.50;99.90;;;;;;4956701;28;20037;-88
2023/12/12 20:07:10;;;;;;;2.42;1.40;;;10.70;99.90;;;;;;4970664;28;20399;-86
2023/12/12 20:09:40;;;;;;;2.88;1.15;;;10.40;99.90;;;;;;4958954;28;20054;-85
2023/12/12 20:12:09;;;;;;;4.35;1.38;;;10.40;99.90;;;;;;4948997;28;20028;-85
2023/12/12 20:14:35;;;;;;;3.67;1.20;;;10.40;99.90;;;;;;4968127;28;20187;-87
2023/12/12 20:17:01;;;;;;;4.35;1.60;;;;;;;;;;4960944;28;20174;-84
2023/12/12 20:19:30;;;;;;;3.53;1.40;;;;;;;;;;4970480;28;20028;-84